Time;durP1;ratioP1;P1;durP2;ratioP2;P2;SDS_P1;SDS_P2;PMS_P1;PMS_P2;Temp;Humidity;BMP_temperature;BMP_pressure;BME280_temperature;BME280_humidity;BME280_pressure;Samples;Min_cycle;Max_cycle;Signal;HPM_P1;HPM_P2
2022/01/06 00:01:57;;;;;;;65.17;37.73;;;;;;;5.79;100.00;98727.38;5073571;28;20202;-60
2022/01/06 00:04:23;;;;;;;72.67;40.33;;;;;;;5.89;100.00;98727.19;5073511;28;20263;-60
2022/01/06 00:06:50;;;;;;;68.63;38.50;;;;;;;5.84;100.00;98746.16;5073143;28;20204;-60
2022/01/06 00:09:18;;;;;;;70.60;37.93;;;;;;;5.93;100.00;98747.69;5073756;28;20191;-60
2022/01/06 00:11:46;;;;;;;62.10;36.97;;;;;;;5.98;100.00;98751.00;5073611;28;20218;-60
2022/01/06 00:14:18;;;;;;;71.70;37.07;;;;;;;5.74;100.00;98736.94;5073465;28;20198;-61
2022/01/06 00:17:00;;;;;;;61.23;36.93;;;;;;;5.71;100.00;98762.75;5073591;28;20196;-61
2022/01/06 00:24:57;;;;;;;69.00;38.07;;;;;;;5.71;100.00;98764.47;5073203;28;20223;-61
2022/01/06 00:27:24;;;;;;;72.53;38.63;;;;;;;5.60;100.00;98766.41;5073132;28;20206;-61
2022/01/06 00:29:51;;;;;;;69.40;38.13;;;;;;;5.55;100.00;98761.34;5073054;28;20208;-60
2022/01/06 00:32:18;;;;;;;64.27;37.23;;;;;;;5.51;100.00;98767.47;5073307;28;20294;-60
2022/01/06 00:34:46;;;;;;;72.23;38.37;;;;;;;5.48;100.00;98763.22;5072953;28;20192;-59
2022/01/06 00:37:14;;;;;;;65.50;36.50;;;;;;;5.53;100.00;98765.69;5072804;28;20232;-60
2022/01/06 00:39:40;;;;;;;65.30;36.43;;;;;;;5.48;100.00;98765.78;5072949;28;20622;-60
2022/01/06 00:42:07;;;;;;;61.33;36.37;;;;;;;5.41;100.00;98764.25;5072745;28;20287;-60
2022/01/06 00:44:34;;;;;;;62.93;36.43;;;;;;;5.19;100.00;98750.09;5073009;28;20602;-62
2022/01/06 00:47:01;;;;;;;65.90;35.97;;;;;;;5.28;100.00;98749.06;5073122;28;20615;-60
2022/01/06 00:49:28;;;;;;;61.20;35.93;;;;;;;5.39;100.00;98749.69;5072864;28;20196;-60
2022/01/06 00:51:57;;;;;;;60.83;34.83;;;;;;;5.28;100.00;98741.34;5072702;28;20243;-61
2022/01/06 00:54:24;;;;;;;57.90;34.47;;;;;;;5.32;100.00;98746.38;5072715;28;20562;-61
2022/01/06 00:56:51;;;;;;;60.77;34.70;;;;;;;5.35;100.00;98740.34;5072509;28;20235;-61
2022/01/06 00:59:18;;;;;;;67.40;34.93;;;;;;;5.40;100.00;98743.69;5072858;28;20218;-60
2022/01/06 01:01:45;;;;;;;52.70;33.53;;;;;;;5.34;100.00;98736.91;5072554;28;20210;-60
2022/01/06 01:04:12;;;;;;;55.67;33.47;;;;;;;5.23;100.00;98736.28;5072487;28;20196;-60
2022/01/06 01:06:39;;;;;;;52.83;32.97;;;;;;;5.27;100.00;98719.06;5071638;28;20207;-59
2022/01/06 01:09:07;;;;;;;58.97;32.77;;;;;;;5.07;100.00;98694.59;5072950;28;20200;-61
2022/01/06 01:11:34;;;;;;;54.23;33.33;;;;;;;5.13;100.00;98700.47;5072556;28;20676;-61
2022/01/06 01:14:17;;;;;;;56.93;34.50;;;;;;;5.27;100.00;98725.06;5072212;28;20203;-61
2022/01/06 01:16:53;;;;;;;55.03;33.93;;;;;;;5.18;100.00;98727.81;5072218;28;20223;-60
2022/01/06 01:19:20;;;;;;;53.13;32.13;;;;;;;5.16;100.00;98728.72;5072286;28;20582;-60
2022/01/06 01:21:47;;;;;;;58.40;33.47;;;;;;;5.06;100.00;98726.34;5072165;28;20196;-60
2022/01/06 01:24:16;;;;;;;60.50;34.30;;;;;;;5.17;100.00;98725.28;5072065;28;20288;-60
2022/01/06 01:26:43;;;;;;;54.07;33.83;;;;;;;5.11;100.00;98718.50;5072293;28;20200;-60
2022/01/06 01:29:15;;;;;;;54.43;34.27;;;;;;;5.09;100.00;98717.69;5072064;28;20210;-62
2022/01/06 01:31:45;;;;;;;63.27;34.47;;;;;;;5.03;100.00;98710.09;5072052;28;20196;-60
2022/01/06 01:34:13;;;;;;;60.43;35.17;;;;;;;5.04;100.00;98704.94;5071892;28;20278;-58
2022/01/06 01:36:42;;;;;;;54.83;34.77;;;;;;;4.91;100.00;98715.47;5071734;28;20284;-60
2022/01/06 01:39:10;;;;;;;57.13;33.30;;;;;;;4.86;100.00;98717.28;5071912;28;20195;-61
2022/01/06 01:41:39;;;;;;;54.50;33.87;;;;;;;4.94;100.00;98716.28;5072212;28;20700;-60
2022/01/06 01:44:12;;;;;;;55.23;33.30;;;;;;;5.07;100.00;98715.19;5071786;28;20257;-61
2022/01/06 01:46:43;;;;;;;54.93;34.10;;;;;;;5.01;100.00;98711.84;5071864;28;20228;-61
2022/01/06 01:49:28;;;;;;;57.90;31.97;;;;;;;5.03;100.00;98708.38;5071903;28;20744;-62
2022/01/06 01:51:55;;;;;;;56.00;34.87;;;;;;;4.97;100.00;98703.34;5071446;28;20195;-61
2022/01/06 01:54:22;;;;;;;54.20;34.60;;;;;;;4.98;100.00;98712.75;5071577;28;20200;-59
2022/01/06 01:56:52;;;;;;;51.77;32.93;;;;;;;5.11;100.00;98709.06;5071409;28;20200;-62
2022/01/06 01:59:19;;;;;;;51.87;31.40;;;;;;;5.19;100.00;98701.22;5071401;28;20192;-61
2022/01/06 02:01:46;;;;;;;52.00;31.13;;;;;;;5.06;100.00;98705.75;5071685;28;20224;-60
2022/01/06 02:04:13;;;;;;;50.23;31.37;;;;;;;5.01;100.00;98687.00;5071293;28;20195;-59
2022/01/06 02:06:40;;;;;;;55.50;32.10;;;;;;;5.16;100.00;98716.72;5071354;28;20196;-60
2022/01/06 02:09:06;;;;;;;52.37;32.03;;;;;;;5.00;100.00;98712.72;5071414;28;20303;-60
2022/01/06 02:11:33;;;;;;;55.40;33.47;;;;;;;4.94;100.00;98711.16;5071267;28;20733;-61
2022/01/06 02:14:05;;;;;;;62.23;33.83;;;;;;;4.95;100.00;98696.56;5071121;28;20715;-60
2022/01/06 02:16:32;;;;;;;58.20;34.43;;;;;;;5.00;100.00;98720.44;5071209;28;20200;-60
2022/01/06 02:18:59;;;;;;;56.67;34.40;;;;;;;5.03;100.00;98712.69;5070168;28;20585;-61
2022/01/06 02:21:27;;;;;;;53.83;33.90;;;;;;;4.95;100.00;98714.56;5071047;28;20302;-60
2022/01/06 02:23:54;;;;;;;61.03;36.63;;;;;;;4.78;100.00;98719.16;5070891;28;20196;-61
2022/01/06 02:26:22;;;;;;;58.47;35.77;;;;;;;4.86;100.00;98725.84;5070773;28;20220;-60
2022/01/06 02:28:49;;;;;;;58.17;35.63;;;;;;;4.73;100.00;98727.81;5070900;28;20676;-61
2022/01/06 02:31:16;;;;;;;63.37;36.23;;;;;;;4.83;100.00;98727.66;5070899;28;20663;-60
2022/01/06 02:33:42;;;;;;;61.53;36.07;;;;;;;4.93;100.00;98721.44;5070884;28;20203;-60
2022/01/06 02:36:09;;;;;;;76.73;39.60;;;;;;;4.72;100.00;98697.84;5070644;28;20319;-61
2022/01/06 02:38:38;;;;;;;65.67;38.60;;;;;;;4.87;100.00;98729.25;5070720;28;20664;-61
2022/01/06 02:41:05;;;;;;;72.67;40.80;;;;;;;4.87;100.00;98719.81;5070570;28;20204;-60
2022/01/06 02:43:32;;;;;;;66.57;39.10;;;;;;;4.98;100.00;98720.47;5070906;28;20203;-61
2022/01/06 02:45:59;;;;;;;67.90;40.07;;;;;;;4.85;100.00;98706.19;5070608;28;20711;-60
2022/01/06 02:48:26;;;;;;;63.90;38.83;;;;;;;4.91;100.00;98708.63;5070567;28;20192;-60
2022/01/06 02:50:53;;;;;;;65.87;38.20;;;;;;;4.94;100.00;98700.00;5070438;28;20291;-59
2022/01/06 02:53:21;;;;;;;63.70;37.87;;;;;;;4.95;100.00;98702.56;5070504;28;20196;-60
2022/01/06 02:55:53;;;;;;;71.43;38.90;;;;;;;4.96;100.00;98698.25;5070302;28;20192;-61
2022/01/06 02:58:21;;;;;;;62.90;37.83;;;;;;;4.83;100.00;98684.78;5070631;28;20238;-60
2022/01/06 03:00:49;;;;;;;67.20;39.27;;;;;;;5.04;100.00;98694.66;5070394;28;20583;-60
2022/01/06 03:03:16;;;;;;;65.20;38.53;;;;;;;4.98;100.00;98702.47;5070431;28;20196;-60
2022/01/06 03:05:43;;;;;;;66.67;39.17;;;;;;;4.94;100.00;98711.16;5070185;28;20234;-58
2022/01/06 03:08:10;;;;;;;59.60;38.53;;;;;;;4.89;100.00;98714.66;5070053;28;20202;-61
2022/01/06 03:10:41;;;;;;;62.50;37.00;;;;;;;4.92;100.00;98732.59;5070424;28;20691;-60
2022/01/06 03:13:09;;;;;;;59.03;35.40;;;;;;;4.82;100.00;98721.66;5070311;28;20191;-61
2022/01/06 03:15:37;;;;;;;56.00;35.33;;;;;;;4.76;100.00;98716.59;5070153;28;20200;-61
2022/01/06 03:18:04;;;;;;;56.00;34.97;;;;;;;4.71;100.00;98718.44;5070123;28;20203;-60
2022/01/06 03:20:31;;;;;;;60.80;37.17;;;;;;;4.69;100.00;98717.59;5069955;28;20288;-60
2022/01/06 03:22:58;;;;;;;54.60;33.83;;;;;;;4.60;100.00;98725.47;5069934;28;20202;-60
2022/01/06 03:25:25;;;;;;;58.20;34.33;;;;;;;4.66;100.00;98723.63;5069979;28;20220;-61
2022/01/06 03:27:53;;;;;;;59.30;34.60;;;;;;;4.81;100.00;98730.25;5070080;28;20651;-61
2022/01/06 03:30:23;;;;;;;54.63;34.53;;;;;;;4.75;100.00;98735.47;5070107;28;20278;-61
2022/01/06 03:32:51;;;;;;;51.03;33.83;;;;;;;4.81;100.00;98727.66;5069844;28;20283;-61
2022/01/06 03:35:23;;;;;;;54.37;35.33;;;;;;;4.87;100.00;98745.53;5069705;28;20219;-61
2022/01/06 03:37:50;;;;;;;54.93;33.93;;;;;;;4.82;100.00;98737.06;5069838;28;20582;-60
2022/01/06 03:40:17;;;;;;;59.33;36.20;;;;;;;4.75;100.00;98749.19;5070186;28;20321;-61
2022/01/06 03:42:45;;;;;;;56.93;34.67;;;;;;;4.70;100.00;98742.44;5069928;28;20200;-60
2022/01/06 03:45:14;;;;;;;62.67;36.77;;;;;;;4.52;100.00;98732.44;5069660;28;20238;-60
2022/01/06 03:47:42;;;;;;;60.40;35.47;;;;;;;4.53;100.00;98745.28;5069630;28;20676;-61
2022/01/06 03:50:11;;;;;;;52.03;33.60;;;;;;;4.48;100.00;98741.97;5069744;28;20237;-61
2022/01/06 03:52:39;;;;;;;55.67;33.93;;;;;;;4.57;100.00;98756.38;5069866;28;20202;-61
2022/01/06 03:55:09;;;;;;;55.87;33.67;;;;;;;4.51;100.00;98762.47;5069880;28;20676;-61
2022/01/06 03:57:36;;;;;;;52.30;33.43;;;;;;;4.56;100.00;98754.66;5069582;28;20196;-61
2022/01/06 04:00:05;;;;;;;50.07;32.03;;;;;;;4.49;100.00;98753.94;5069655;28;20204;-61
2022/01/06 04:02:33;;;;;;;56.47;31.40;;;;;;;4.44;100.00;98757.44;5068204;28;20192;-59
2022/01/06 04:05:01;;;;;;;46.10;30.50;;;;;;;4.42;100.00;98754.88;5069291;28;20231;-59
2022/01/06 04:07:28;;;;;;;45.53;30.60;;;;;;;4.54;100.00;98753.84;5068549;28;20227;-60
2022/01/06 04:09:55;;;;;;;49.10;31.07;;;;;;;4.53;100.00;98750.41;5068162;28;20287;-59
2022/01/06 04:12:22;;;;;;;52.60;32.17;;;;;;;4.46;100.00;98753.97;5068379;28;20210;-60
2022/01/06 04:14:49;;;;;;;49.23;30.70;;;;;;;4.23;100.00;98750.94;5068067;28;20646;-60
2022/01/06 04:17:16;;;;;;;51.60;30.87;;;;;;;4.33;100.00;98763.59;5068704;28;20586;-60
2022/01/06 04:19:43;;;;;;;49.97;31.23;;;;;;;4.41;100.00;98758.31;5068042;28;20198;-60
2022/01/06 04:22:11;;;;;;;54.00;32.00;;;;;;;4.40;100.00;98771.22;5068055;28;20200;-60
2022/01/06 04:24:38;;;;;;;53.07;31.13;;;;;;;4.43;100.00;98760.88;5068062;28;20660;-62
2022/01/06 04:27:05;;;;;;;54.40;32.47;;;;;;;4.41;100.00;98765.19;5067994;28;20220;-59
2022/01/06 04:29:32;;;;;;;48.40;30.83;;;;;;;4.44;100.00;98768.56;5065048;28;20203;-61
2022/01/06 04:31:59;;;;;;;51.70;31.73;;;;;;;4.34;100.00;98765.28;5068408;28;20198;-60
2022/01/06 04:34:26;;;;;;;47.47;32.00;;;;;;;4.28;100.00;98764.56;5063703;28;20226;-60
2022/01/06 04:36:56;;;;;;;53.13;32.07;;;;;;;4.23;100.00;98771.47;5065153;28;20254;-61
2022/01/06 04:39:24;;;;;;;49.50;32.73;;;;;;;4.21;100.00;98768.94;5066760;28;20228;-60
2022/01/06 04:41:51;;;;;;;54.97;32.27;;;;;;;4.06;100.00;98776.88;5068962;28;20199;-60
2022/01/06 04:44:19;;;;;;;54.43;33.03;;;;;;;4.15;100.00;98769.03;5071414;28;20192;-62
2022/01/06 04:46:45;;;;;;;52.10;32.23;;;;;;;4.16;100.00;98775.03;5071540;28;20216;-63
2022/01/06 04:49:12;;;;;;;50.20;31.77;;;;;;;4.11;100.00;98767.38;5071488;28;20190;-60
2022/01/06 04:51:39;;;;;;;57.70;33.27;;;;;;;3.98;100.00;98750.44;5071515;28;20210;-60
2022/01/06 04:54:06;;;;;;;57.50;32.60;;;;;;;4.09;100.00;98761.41;5068870;28;20196;-59
2022/01/06 04:56:37;;;;;;;51.77;31.57;;;;;;;3.98;100.00;98761.56;5071385;28;20200;-60
2022/01/06 04:59:05;;;;;;;43.23;28.93;;;;;;;4.09;100.00;98752.84;5071205;28;20257;-59
2022/01/06 05:01:32;;;;;;;46.53;29.13;;;;;;;4.12;100.00;98757.94;5071404;28;20273;-60
2022/01/06 05:03:59;;;;;;;42.20;27.87;;;;;;;4.00;100.00;98753.84;5071173;28;20208;-60
2022/01/06 05:06:26;;;;;;;50.43;29.27;;;;;;;4.19;100.00;98765.53;5068596;28;20222;-60
2022/01/06 05:08:54;;;;;;;45.30;27.07;;;;;;;4.10;100.00;98778.50;5070992;28;20192;-60
2022/01/06 05:11:21;;;;;;;48.43;27.93;;;;;;;4.16;100.00;98780.16;5068048;28;20246;-60
2022/01/06 05:13:51;;;;;;;41.70;27.27;;;;;;;4.20;100.00;98781.78;5070677;28;20214;-62
2022/01/06 05:16:18;;;;;;;39.17;25.97;;;;;;;4.17;100.00;98779.28;5070594;28;20220;-60
2022/01/06 05:18:45;;;;;;;41.07;27.40;;;;;;;4.10;100.00;98763.09;5067826;28;20222;-60
2022/01/06 05:21:12;;;;;;;37.50;25.47;;;;;;;4.16;100.00;98787.84;5070414;28;20790;-61
2022/01/06 05:23:40;;;;;;;40.77;24.87;;;;;;;3.85;100.00;98743.78;5071722;28;20229;-61
2022/01/06 05:26:08;;;;;;;42.00;25.17;;;;;;;4.02;100.00;98772.66;5070930;28;20232;-60
2022/01/06 05:28:35;;;;;;;38.33;23.80;;;;;;;3.90;100.00;98789.06;5069733;28;20226;-59
2022/01/06 05:31:04;;;;;;;38.53;23.97;;;;;;;3.97;100.00;98802.66;5069211;28;20211;-60
2022/01/06 05:33:31;;;;;;;37.97;22.17;;;;;;;3.89;100.00;98794.22;5071562;28;20234;-60
2022/01/06 05:35:58;;;;;;;33.53;20.77;;;;;;;3.78;100.00;98804.63;5069425;28;20267;-60
2022/01/06 05:38:24;;;;;;;30.33;19.67;;;;;;;3.75;100.00;98802.09;5070567;28;20314;-60
2022/01/06 05:40:51;;;;;;;33.23;19.80;;;;;;;3.76;100.00;98803.78;5070159;28;20294;-62
2022/01/06 05:43:22;;;;;;;28.63;18.63;;;;;;;3.80;100.00;98812.31;5070888;28;20262;-61
2022/01/06 05:45:51;;;;;;;33.23;20.23;;;;;;;3.73;100.00;98808.09;5070106;28;20231;-59
2022/01/06 05:48:19;;;;;;;36.93;21.07;;;;;;;3.46;100.00;98781.94;5071142;28;20588;-60
2022/01/06 05:50:48;;;;;;;38.27;21.13;;;;;;;3.67;100.00;98815.91;5069747;28;20225;-60
2022/01/06 05:53:15;;;;;;;34.87;21.40;;;;;;;3.65;100.00;98803.09;5070044;28;20226;-60
2022/01/06 05:55:42;;;;;;;33.57;20.17;;;;;;;3.67;100.00;98811.63;5069765;28;20233;-60
2022/01/06 05:58:09;;;;;;;32.53;20.43;;;;;;;3.67;100.00;98816.75;5069390;28;20419;-60
2022/01/06 06:00:36;;;;;;;32.33;20.93;;;;;;;3.62;100.00;98815.94;5067724;28;20218;-60
2022/01/06 06:03:03;;;;;;;34.10;22.10;;;;;;;3.66;100.00;98809.91;5069375;28;20219;-60
2022/01/06 06:05:32;;;;;;;38.23;22.97;;;;;;;3.60;100.00;98805.72;5067814;28;20308;-58
2022/01/06 06:07:58;;;;;;;36.80;24.20;;;;;;;3.75;100.00;98820.06;5069418;28;20233;-60
2022/01/06 06:10:25;;;;;;;41.63;25.70;;;;;;;3.85;100.00;98820.78;5069587;28;20301;-59
2022/01/06 06:12:53;;;;;;;44.97;27.17;;;;;;;3.91;100.00;98820.72;5068991;28;20229;-60
2022/01/06 06:15:21;;;;;;;48.20;26.97;;;;;;;3.93;100.00;98826.69;5066908;28;20714;-59
2022/01/06 06:17:48;;;;;;;43.30;26.70;;;;;;;3.73;100.00;98801.25;5069127;28;20215;-60
2022/01/06 06:20:15;;;;;;;44.07;25.90;;;;;;;4.04;100.00;98831.69;5068491;28;20211;-60
2022/01/06 06:22:43;;;;;;;43.13;26.30;;;;;;;4.19;100.00;98826.31;5070601;28;20230;-59
2022/01/06 06:25:11;;;;;;;43.43;25.40;;;;;;;4.10;100.00;98827.28;5070335;28;20223;-59
2022/01/06 06:27:38;;;;;;;39.57;24.03;;;;;;;4.25;100.00;98837.38;5070381;28;20257;-60
2022/01/06 06:30:06;;;;;;;41.23;24.43;;;;;;;4.24;100.00;98830.53;5070082;28;20226;-60
2022/01/06 06:32:33;;;;;;;46.47;27.27;;;;;;;4.23;100.00;98815.97;5070528;28;20277;-60
2022/01/06 06:35:01;;;;;;;36.33;23.83;;;;;;;4.37;100.00;98823.50;5069360;28;20783;-60
2022/01/06 06:37:28;;;;;;;40.90;25.00;;;;;;;4.58;100.00;98830.03;5070306;28;20616;-59
2022/01/06 06:39:57;;;;;;;37.40;23.23;;;;;;;4.33;100.00;98799.56;5069668;28;20226;-59
2022/01/06 06:42:24;;;;;;;34.90;22.33;;;;;;;4.47;100.00;98811.34;5068648;28;20215;-60
2022/01/06 06:44:51;;;;;;;39.20;21.93;;;;;;;4.61;100.00;98819.69;5068986;28;20614;-59
2022/01/06 06:47:18;;;;;;;31.07;20.90;;;;;;;4.72;100.00;98828.94;5068649;28;20310;-60
2022/01/06 06:49:45;;;;;;;33.13;20.83;;;;;;;4.90;100.00;98825.19;5068212;28;20234;-61
2022/01/06 06:52:12;;;;;;;31.87;21.93;;;;;;;4.93;100.00;98806.31;5065603;28;20239;-61
2022/01/06 06:54:40;;;;;;;32.17;20.97;;;;;;;5.08;100.00;98830.00;5068566;28;20226;-60
2022/01/06 06:57:08;;;;;;;34.17;22.03;;;;;;;5.20;100.00;98826.38;5068832;28;20212;-61
2022/01/06 06:59:35;;;;;;;33.03;20.67;;;;;;;5.36;100.00;98842.38;5068633;28;20224;-61
2022/01/06 07:02:03;;;;;;;34.93;21.27;;;;;;;5.53;100.00;98842.91;5069596;28;20302;-60
2022/01/06 07:04:30;;;;;;;33.07;20.90;;;;;;;5.69;100.00;98849.47;5068573;28;20215;-60
2022/01/06 07:06:57;;;;;;;32.27;20.57;;;;;;;5.79;100.00;98853.53;5069338;28;20234;-60
2022/01/06 07:09:24;;;;;;;34.27;20.10;;;;;;;5.88;100.00;98851.66;5069056;28;20307;-59
2022/01/06 07:11:51;;;;;;;32.73;21.33;;;;;;;5.96;100.00;98857.53;5069712;28;20238;-59
2022/01/06 07:14:19;;;;;;;40.47;24.13;;;;;;;5.84;100.00;98858.59;5069186;28;20227;-60
2022/01/06 07:16:46;;;;;;;39.73;22.60;;;;;;;5.96;100.00;98849.81;5069400;28;20226;-60
2022/01/06 07:19:13;;;;;;;106.53;26.03;;;;;;;6.03;100.00;98856.53;5068829;28;20254;-61
2022/01/06 07:21:40;;;;;;;49.83;21.53;;;;;;;6.10;100.00;98858.94;5069523;28;20216;-61
2022/01/06 07:24:07;;;;;;;38.57;21.53;;;;;;;6.20;100.00;98862.19;5069127;28;20623;-60
2022/01/06 07:26:36;;;;;;;31.90;20.17;;;;;;;6.14;100.00;98852.00;5065298;28;20622;-59
2022/01/06 07:29:03;;;;;;;29.67;20.03;;;;;;;6.28;100.00;98870.59;5068315;28;20643;-61
2022/01/06 07:31:32;;;;;;;31.03;19.50;;;;;;;6.42;100.00;98878.88;5069325;28;20219;-60
2022/01/06 07:33:59;;;;;;;31.13;20.73;;;;;;;6.45;100.00;98880.50;5068606;28;20223;-59
2022/01/06 07:36:26;;;;;;;33.53;21.60;;;;;;;6.52;100.00;98879.50;5069316;28;20247;-59
2022/01/06 07:38:53;;;;;;;33.50;21.33;;;;;;;6.68;100.00;98882.56;5068565;28;20222;-59
2022/01/06 07:41:20;;;;;;;32.03;21.17;;;;;;;6.66;100.00;98890.34;5069371;28;20347;-60
2022/01/06 07:43:46;;;;;;;36.83;20.97;;;;;;;6.59;100.00;98896.53;5069194;28;20250;-61
2022/01/06 07:46:13;;;;;;;30.97;20.30;;;;;;;6.66;100.00;98889.50;5069314;28;20674;-61
2022/01/06 07:48:57;;;;;;;28.33;21.03;;;;;;;6.71;100.00;98885.06;5068741;28;20303;-63
2022/01/06 07:51:25;;;;;;;56.13;23.40;;;;;;;6.65;100.00;98887.81;5069260;28;20270;-64
2022/01/06 07:53:52;;;;;;;61.97;22.73;;;;;;;6.65;100.00;98887.81;5068941;28;20219;-64
2022/01/06 07:56:19;;;;;;;52.57;21.10;;;;;;;6.70;100.00;98891.13;5069230;28;20224;-62
2022/01/06 07:58:46;;;;;;;32.77;20.10;;;;;;;6.86;100.00;98877.00;5068867;28;20318;-64
2022/01/06 08:01:14;;;;;;;31.53;19.83;;;;;;;6.95;100.00;98881.91;5069131;28;20223;-63
2022/01/06 08:03:43;;;;;;;35.30;20.47;;;;;;;6.82;100.00;98883.09;5068687;28;20226;-63
2022/01/06 08:06:10;;;;;;;29.50;20.47;;;;;;;6.92;100.00;98887.16;5068968;28;20228;-63
2022/01/06 08:08:37;;;;;;;28.03;20.13;;;;;;;6.76;100.00;98880.69;5069199;28;20247;-63
2022/01/06 08:11:05;;;;;;;31.57;19.37;;;;;;;6.92;100.00;98894.88;5067786;28;20319;-63
2022/01/06 08:13:32;;;;;;;32.07;19.83;;;;;;;7.07;100.00;98893.69;5068877;28;20247;-60
2022/01/06 08:15:59;;;;;;;30.60;19.90;;;;;;;7.22;100.00;98890.72;5070335;28;20585;-61
2022/01/06 08:18:27;;;;;;;38.53;20.63;;;;;;;7.42;100.00;98892.78;5072533;28;20255;-61
2022/01/06 08:20:56;;;;;;;35.37;21.93;;;;;;;7.50;100.00;98896.00;5073110;28;20220;-60
2022/01/06 08:23:23;;;;;;;41.00;23.83;;;;;;;7.59;100.00;98888.84;5072955;28;20231;-62
2022/01/06 08:25:50;;;;;;;39.57;24.80;;;;;;;7.68;100.00;98889.50;5072749;28;20310;-61
2022/01/06 08:28:17;;;;;;;43.63;25.60;;;;;;;7.84;100.00;98896.78;5072446;28;20246;-61
2022/01/06 08:30:44;;;;;;;52.70;29.40;;;;;;;7.82;100.00;98877.06;5072946;28;20265;-61
2022/01/06 08:33:11;;;;;;;56.73;34.47;;;;;;;7.98;100.00;98874.00;5070549;28;20303;-60
2022/01/06 08:35:38;;;;;;;42.23;27.00;;;;;;;8.07;100.00;98893.56;5068724;28;20240;-61
2022/01/06 08:38:06;;;;;;;42.20;26.53;;;;;;;8.13;100.00;98893.38;5071204;28;20671;-61
2022/01/06 08:40:34;;;;;;;46.17;28.93;;;;;;;8.09;100.00;98904.72;5071012;28;20212;-62
2022/01/06 08:43:01;;;;;;;44.83;28.33;;;;;;;8.12;100.00;98907.22;5070917;28;20598;-61
2022/01/06 08:45:32;;;;;;;44.37;27.20;;;;;;;8.17;100.00;98910.50;5069482;28;20345;-61
2022/01/06 08:48:01;;;;;;;51.97;25.73;;;;;;;8.31;100.00;98915.28;5060872;28;20304;-62
2022/01/06 08:50:28;;;;;;;38.73;25.37;;;;;;;8.42;100.00;98904.66;5070832;28;20254;-60
2022/01/06 08:52:58;;;;;;;38.07;25.17;;;;;;;8.68;100.00;98913.31;5070589;28;20943;-61
2022/01/06 08:55:27;;;;;;;33.33;22.93;;;;;;;8.73;100.00;98920.94;5070672;28;20295;-61
2022/01/06 08:57:54;;;;;;;36.83;22.70;;;;;;;8.71;100.00;98912.38;5070404;28;20635;-61
2022/01/06 09:00:21;;;;;;;35.57;21.87;;;;;;;8.54;100.00;98874.09;5070187;28;20216;-61
2022/01/06 09:02:48;;;;;;;31.53;22.60;;;;;;;8.80;100.00;98916.44;5069454;28;20227;-61
2022/01/06 09:05:15;;;;;;;35.13;22.20;;;;;;;8.89;100.00;98913.53;5070145;28;20307;-61
2022/01/06 09:07:43;;;;;;;39.07;23.67;;;;;;;8.87;100.00;98923.09;5070743;28;20263;-61
2022/01/06 09:10:10;;;;;;;36.60;23.50;;;;;;;8.76;100.00;98920.84;5071055;28;20338;-62
2022/01/06 09:12:39;;;;;;;36.70;24.30;;;;;;;8.90;100.00;98918.69;5071399;28;20619;-61
2022/01/06 09:15:09;;;;;;;39.17;25.20;;;;;;;8.83;100.00;98922.34;5071183;28;20224;-63
2022/01/06 09:17:36;;;;;;;38.83;24.27;;;;;;;8.94;100.00;98909.91;5071230;28;20526;-63
2022/01/06 09:20:05;;;;;;;32.90;23.03;;;;;;;9.02;100.00;98904.50;5071307;28;20586;-64
2022/01/06 09:22:32;;;;;;;33.37;22.57;;;;;;;9.04;100.00;98910.44;5071546;28;20230;-63
2022/01/06 09:24:59;;;;;;;39.37;23.47;;;;;;;9.14;100.00;98922.22;5071215;28;20303;-64
2022/01/06 09:27:28;;;;;;;42.93;27.10;;;;;;;9.18;100.00;98907.41;5071043;28;20232;-64
2022/01/06 09:29:56;;;;;;;41.63;25.97;;;;;;;9.36;100.00;98912.84;5069386;28;20223;-65
2022/01/06 09:32:23;;;;;;;42.33;27.57;;;;;;;9.37;100.00;98918.84;5071490;28;20196;-61
2022/01/06 09:34:50;;;;;;;43.27;27.47;;;;;;;9.46;100.00;98914.25;5062575;28;20200;-60
2022/01/06 09:37:18;;;;;;;41.00;27.57;;;;;;;9.50;100.00;98906.34;5071380;28;20228;-60
2022/01/06 09:39:45;;;;;;;32.23;23.17;;;;;;;9.63;100.00;98905.88;5070727;28;20199;-62
2022/01/06 09:42:13;;;;;;;37.27;21.80;;;;;;;9.70;100.00;98901.34;5071370;28;20200;-61
2022/01/06 09:44:40;;;;;;;32.73;20.60;;;;;;;9.90;100.00;98896.28;5071741;28;20299;-63
2022/01/06 09:47:09;;;;;;;28.87;19.90;;;;;;;9.98;100.00;98901.19;5071618;28;20226;-61
2022/01/06 09:49:38;;;;;;;26.27;18.93;;;;;;;9.75;100.00;98899.41;5071778;28;20192;-65
2022/01/06 09:52:06;;;;;;;26.87;18.97;;;;;;;9.56;100.00;98898.38;5071516;28;20207;-62
2022/01/06 09:54:33;;;;;;;30.50;18.10;;;;;;;9.80;100.00;98892.34;5071419;28;20254;-61
2022/01/06 09:57:00;;;;;;;35.00;20.10;;;;;;;10.10;100.00;98888.63;5071077;28;20206;-62
2022/01/06 09:59:28;;;;;;;25.23;18.77;;;;;;;10.29;100.00;98885.38;5071500;28;20192;-61
2022/01/06 10:01:55;;;;;;;37.97;18.17;;;;;;;10.45;100.00;98887.34;5071265;28;20663;-61
2022/01/06 10:04:27;;;;;;;29.53;18.10;;;;;;;10.51;99.71;98888.84;5071554;28;20192;-61
2022/01/06 10:07:02;;;;;;;30.60;18.83;;;;;;;10.73;99.08;98886.25;5070959;28;20231;-61
2022/01/06 10:09:29;;;;;;;27.53;19.37;;;;;;;10.82;98.39;98888.50;5071265;28;20206;-62
2022/01/06 10:11:58;;;;;;;25.87;18.73;;;;;;;10.91;97.86;98890.72;5071394;28;20751;-61
2022/01/06 10:14:37;;;;;;;28.83;19.37;;;;;;;11.03;96.83;98879.84;5070976;28;20202;-61
2022/01/06 10:17:06;;;;;;;26.60;20.10;;;;;;;10.94;97.29;98879.38;5070905;28;20294;-61
2022/01/06 10:19:40;;;;;;;33.10;24.87;;;;;;;11.03;96.69;98879.84;5066639;28;20234;-60
2022/01/06 10:22:13;;;;;;;28.03;17.73;;;;;;;10.83;96.90;98877.22;5056617;28;20266;-60
2022/01/06 10:24:44;;;;;;;26.70;16.00;;;;;;;10.71;97.74;98869.91;5070003;28;20322;-60
2022/01/06 10:27:12;;;;;;;25.27;16.03;;;;;;;10.85;97.85;98873.63;5069773;28;20235;-64
2022/01/06 10:29:43;;;;;;;22.50;16.70;;;;;;;10.94;96.90;98877.63;5070171;28;20228;-61
2022/01/06 10:32:12;;;;;;;26.30;17.07;;;;;;;11.06;96.34;98879.69;5069510;28;20251;-60
2022/01/06 10:34:43;;;;;;;21.77;17.97;;;;;;;11.08;96.29;98879.66;5069842;28;20726;-61
2022/01/06 10:37:22;;;;;;;35.20;19.33;;;;;;;10.98;96.18;98866.19;5069443;28;20235;-62
2022/01/06 10:39:50;;;;;;;31.10;19.60;;;;;;;11.10;96.17;98875.25;5069386;28;20708;-61
2022/01/06 10:42:18;;;;;;;29.87;20.17;;;;;;;10.82;96.78;98853.00;5069636;28;20226;-61
2022/01/06 10:44:49;;;;;;;30.57;20.33;;;;;;;11.06;96.95;98873.69;5069999;28;20216;-62
2022/01/06 10:47:29;;;;;;;31.20;19.67;;;;;;;11.15;96.95;98874.16;5069238;28;20306;-61
2022/01/06 10:50:10;;;;;;;27.30;19.97;;;;;;;11.15;96.97;98870.72;5069242;28;20669;-61
2022/01/06 10:52:38;;;;;;;32.03;21.03;;;;;;;11.07;96.91;98855.44;5069542;28;20307;-60
2022/01/06 10:55:13;;;;;;;29.50;21.67;;;;;;;11.25;97.03;98861.63;5068745;28;20311;-61
2022/01/06 10:57:51;;;;;;;30.93;20.80;;;;;;;11.20;96.37;98873.94;5050112;28;20245;-61
2022/01/06 11:00:18;;;;;;;34.97;21.07;;;;;;;11.21;96.64;98865.25;5049797;28;20219;-61
2022/01/06 11:02:45;;;;;;;27.03;21.93;;;;;;;11.26;96.74;98860.72;5069457;28;20724;-63
2022/01/06 11:05:13;;;;;;;33.17;23.73;;;;;;;11.38;97.22;98870.59;5068550;28;20637;-64
2022/01/06 11:07:41;;;;;;;37.70;21.87;;;;;;;11.35;96.91;98839.53;5069202;28;20263;-63
2022/01/06 11:10:15;;;;;;;34.90;22.10;;;;;;;11.55;96.76;98857.72;5069118;28;20318;-63
2022/01/06 11:12:42;;;;;;;27.93;20.53;;;;;;;11.65;95.04;98853.81;5069295;28;20216;-61
2022/01/06 11:15:10;;;;;;;31.97;22.10;;;;;;;11.51;95.36;98850.94;5069253;28;20685;-62
2022/01/06 11:17:37;;;;;;;31.00;21.63;;;;;;;11.44;96.00;98831.34;5069413;28;20740;-61
2022/01/06 11:20:05;;;;;;;32.13;21.77;;;;;;;11.61;96.71;98847.06;5068510;28;20255;-61
2022/01/06 11:22:34;;;;;;;32.43;21.23;;;;;;;11.68;97.12;98852.00;5069321;28;20248;-64
2022/01/06 11:25:02;;;;;;;34.10;22.27;;;;;;;11.68;96.07;98833.78;5069360;28;20586;-64
2022/01/06 11:27:34;;;;;;;36.00;23.07;;;;;;;11.60;95.47;98809.00;5068054;28;20215;-64